createdAt,value
2023-03-06T00:03:22.406Z,-0.05
2023-03-06T00:07:29.943Z,-0.05
2023-03-06T00:11:40.262Z,-0.04
2023-03-06T00:15:49.914Z,-0.06
2023-03-06T00:19:59.460Z,-0.09
2023-03-06T00:24:07.520Z,-0.17
2023-03-06T00:28:16.194Z,-0.27
2023-03-06T00:32:27.130Z,-0.33
2023-03-06T00:36:36.177Z,-0.38
2023-03-06T00:40:44.207Z,-0.39
2023-03-06T00:44:52.404Z,-0.36
2023-03-06T00:49:00.173Z,-0.31
2023-03-06T00:53:08.283Z,-0.25
2023-03-06T00:57:16.486Z,-0.22
2023-03-06T01:01:24.700Z,-0.24
2023-03-06T01:05:33.755Z,-0.27
2023-03-06T01:09:43.582Z,-0.29
2023-03-06T01:13:51.901Z,-0.28
2023-03-06T01:18:00.044Z,-0.22
2023-03-06T01:22:08.328Z,-0.11
2023-03-06T01:26:16.277Z,-0.03
2023-03-06T01:30:24.720Z,0.02
2023-03-06T01:34:32.182Z,0.04
2023-03-06T01:38:40.228Z,0.05
2023-03-06T01:42:49.278Z,0.05
2023-03-06T01:46:57.041Z,0.08
2023-03-06T01:51:04.820Z,0.13
2023-03-06T01:55:14.683Z,0.22
2023-03-06T01:59:23.642Z,0.30
2023-03-06T02:03:32.281Z,0.34
2023-03-06T02:07:40.529Z,0.33
2023-03-06T02:11:48.261Z,0.27
2023-03-06T02:15:55.954Z,0.23
2023-03-06T02:20:10.423Z,0.21
2023-03-06T02:24:28.846Z,0.25
2023-03-06T02:28:36.652Z,0.35
2023-03-06T02:32:44.793Z,0.42
2023-03-06T02:36:54.191Z,0.45
2023-03-06T02:41:02.244Z,0.42
2023-03-06T02:45:14.539Z,0.40
2023-03-06T02:49:22.726Z,0.40
2023-03-06T02:53:31.938Z,0.41
2023-03-06T02:57:39.499Z,0.46
2023-03-06T03:01:48.109Z,0.54
2023-03-06T03:05:56.040Z,0.53
2023-03-06T03:10:05.106Z,0.48
2023-03-06T03:14:17.154Z,0.42
2023-03-06T03:18:25.821Z,0.39
2023-03-06T03:22:34.465Z,0.41
2023-03-06T03:26:42.374Z,0.44
2023-03-06T03:30:50.189Z,0.49
2023-03-06T03:34:59.673Z,0.50
2023-03-06T03:39:07.307Z,0.47
2023-03-06T03:43:16.433Z,0.48
2023-03-06T03:47:25.265Z,0.47
2023-03-06T03:51:33.034Z,0.49
2023-03-06T03:55:41.002Z,0.54
2023-03-06T03:59:48.520Z,0.61
2023-03-06T04:03:57.099Z,0.66
2023-03-06T04:08:05.577Z,0.71
2023-03-06T04:12:13.328Z,0.71
2023-03-06T04:16:22.708Z,0.68
2023-03-06T04:20:30.796Z,0.69
2023-03-06T04:24:38.150Z,0.72
2023-03-06T04:28:45.726Z,0.80
2023-03-06T04:32:53.853Z,0.82
2023-03-06T04:37:03.913Z,0.83
2023-03-06T04:41:12.065Z,0.81
2023-03-06T04:45:21.156Z,0.78
2023-03-06T04:49:29.159Z,0.78
2023-03-06T04:53:36.929Z,0.82
2023-03-06T04:57:46.278Z,0.90
2023-03-06T05:01:54.386Z,0.95
2023-03-06T05:06:02.557Z,0.98
2023-03-06T05:10:15.746Z,0.97
2023-03-06T05:14:23.396Z,0.95
2023-03-06T05:18:32.181Z,0.97
2023-03-06T05:22:40.234Z,1.00
2023-03-06T05:26:47.687Z,1.05
2023-03-06T05:30:57.283Z,1.07
2023-03-06T05:35:05.859Z,1.08
2023-03-06T05:39:14.842Z,1.07
2023-03-06T05:43:22.732Z,1.07
2023-03-06T05:47:30.663Z,1.10
2023-03-06T05:51:41.841Z,1.16
2023-03-06T05:55:58.717Z,1.23
2023-03-06T06:00:11.840Z,1.30
2023-03-06T06:04:19.837Z,1.34
2023-03-06T06:08:29.610Z,1.36
2023-03-06T06:12:45.467Z,1.39
2023-03-06T06:16:58.052Z,1.42
2023-03-06T06:21:10.274Z,1.49
2023-03-06T06:25:19.672Z,1.61
2023-03-06T06:29:31.646Z,1.72
2023-03-06T06:33:46.014Z,1.81
2023-03-06T06:37:57.170Z,1.88
2023-03-06T06:42:26.598Z,1.92
2023-03-06T06:47:18.199Z,1.97
2023-03-06T06:51:03.065Z,1.99
2023-03-06T06:55:12.199Z,2.06
2023-03-06T06:59:20.586Z,2.16
2023-03-06T07:03:29.519Z,2.23
2023-03-06T07:07:40.630Z,2.29
2023-03-06T07:11:54.089Z,2.30
2023-03-06T07:16:01.682Z,2.33
2023-03-06T07:20:14.198Z,2.34
2023-03-06T07:24:21.912Z,2.38
2023-03-06T07:28:33.692Z,2.45
2023-03-06T07:32:51.686Z,2.55
2023-03-06T07:37:05.343Z,2.61
2023-03-06T07:41:14.069Z,2.65
2023-03-06T07:45:21.936Z,2.67
2023-03-06T07:49:31.986Z,2.71
2023-03-06T07:53:40.274Z,2.77
2023-03-06T07:57:52.871Z,2.83
2023-03-06T08:02:04.935Z,2.92
2023-03-06T08:06:17.812Z,3.06
2023-03-06T08:10:30.121Z,3.19
2023-03-06T08:14:38.720Z,3.30
2023-03-06T08:18:58.263Z,3.39
2023-03-06T08:23:05.666Z,3.44
2023-03-06T08:27:13.461Z,3.46
2023-03-06T08:31:28.531Z,3.50
2023-03-06T08:35:37.037Z,3.56
2023-03-06T08:39:52.441Z,3.58
2023-03-06T08:44:02.269Z,3.60
2023-03-06T08:48:11.470Z,3.68
2023-03-06T08:52:20.357Z,3.81
2023-03-06T08:56:31.719Z,3.94
2023-03-06T09:00:43.866Z,4.05
2023-03-06T09:04:54.185Z,4.16
2023-03-06T09:09:02.476Z,4.23
2023-03-06T09:13:12.389Z,4.31
2023-03-06T09:17:19.980Z,4.39
2023-03-06T09:21:29.635Z,4.41
2023-03-06T09:25:37.773Z,4.41
2023-03-06T09:29:45.893Z,4.44
2023-03-06T09:33:53.338Z,4.53
2023-03-06T09:38:01.077Z,4.64
2023-03-06T09:42:15.455Z,4.72
2023-03-06T09:46:32.834Z,4.78
2023-03-06T09:50:48.008Z,4.81
2023-03-06T09:54:59.248Z,4.85
2023-03-06T09:59:13.406Z,4.92
2023-03-06T10:03:29.012Z,4.98
2023-03-06T10:07:46.069Z,5.03
2023-03-06T10:11:58.269Z,5.07
2023-03-06T10:16:13.826Z,5.10
2023-03-06T10:20:25.707Z,5.12
2023-03-06T10:24:45.255Z,5.17
2023-03-06T10:29:00.199Z,5.24
2023-03-06T10:33:16.204Z,5.29
2023-03-06T10:37:24.990Z,5.33
2023-03-06T10:41:35.946Z,5.42
2023-03-06T10:45:52.267Z,5.51
2023-03-06T10:50:07.327Z,5.59
2023-03-06T10:54:22.623Z,5.67
2023-03-06T10:58:32.566Z,5.72
2023-03-06T11:02:41.692Z,5.81
2023-03-06T11:06:52.183Z,5.90
2023-03-06T11:11:04.733Z,6.00
2023-03-06T11:15:21.073Z,6.08
2023-03-06T11:19:33.102Z,6.15
2023-03-06T11:23:45.642Z,6.21
2023-03-06T11:27:58.596Z,6.33
2023-03-06T11:32:12.748Z,6.44
2023-03-06T11:36:27.160Z,6.52
2023-03-06T11:40:37.937Z,6.51
2023-03-06T11:44:57.547Z,6.53
2023-03-06T11:49:14.621Z,6.62
2023-03-06T11:53:25.222Z,6.71
2023-03-06T11:57:41.001Z,6.73
2023-03-06T12:01:53.929Z,6.76
2023-03-06T12:06:06.062Z,6.87
2023-03-06T12:10:19.270Z,6.99
2023-03-06T12:14:36.014Z,7.00
2023-03-06T12:18:54.289Z,6.96
2023-03-06T12:23:15.099Z,6.92
2023-03-06T12:27:30.183Z,6.90
2023-03-06T12:31:54.366Z,6.89
2023-03-06T12:36:10.507Z,6.84
2023-03-06T12:40:43.875Z,6.78
2023-03-06T12:45:08.590Z,6.70
2023-03-06T12:49:32.033Z,6.66
2023-03-06T12:53:43.480Z,6.66
2023-03-06T12:57:52.802Z,6.63
2023-03-06T13:02:18.231Z,6.58
2023-03-06T13:06:50.751Z,6.52
2023-03-06T13:11:30.496Z,6.47
2023-03-06T13:15:49.515Z,6.44
2023-03-06T13:20:34.942Z,6.39
2023-03-06T13:24:45.241Z,6.27
2023-03-06T13:28:54.266Z,6.09
2023-03-06T13:33:01.930Z,5.76
2023-03-06T13:37:43.475Z,5.32
2023-03-06T13:41:59.980Z,5.10
2023-03-06T13:46:26.299Z,4.83
2023-03-06T13:50:45.004Z,4.67
2023-03-06T13:55:00.345Z,4.59
2023-03-06T13:59:29.412Z,4.61
2023-03-06T14:04:10.153Z,4.65
2023-03-06T14:08:19.988Z,4.66
2023-03-06T14:12:30.564Z,4.64
2023-03-06T14:16:49.714Z,4.66
2023-03-06T14:21:02.037Z,4.75
2023-03-06T14:25:18.984Z,4.76
2023-03-06T14:29:28.940Z,4.83
2023-03-06T14:33:44.797Z,4.98
2023-03-06T14:37:53.906Z,5.12
2023-03-06T14:42:10.667Z,5.13
2023-03-06T14:46:22.823Z,5.26
2023-03-06T14:50:31.982Z,5.37
2023-03-06T14:54:39.652Z,5.40
2023-03-06T14:58:56.313Z,5.47
2023-03-06T15:03:04.664Z,5.54
2023-03-06T15:07:15.523Z,5.49
2023-03-06T15:11:23.562Z,5.33
2023-03-06T15:15:34.211Z,5.26
2023-03-06T15:19:42.986Z,5.23
2023-03-06T15:23:51.844Z,5.19
2023-03-06T15:28:01.309Z,5.07
2023-03-06T15:32:33.179Z,5.01
2023-03-06T15:36:42.495Z,4.96
2023-03-06T15:40:59.651Z,4.97
2023-03-06T15:45:17.073Z,4.93
2023-03-06T15:49:25.157Z,4.97
2023-03-06T15:53:32.592Z,5.01
2023-03-06T15:57:41.344Z,5.10
2023-03-06T16:01:49.081Z,5.09
2023-03-06T16:05:56.852Z,5.05
2023-03-06T16:10:05.269Z,5.04
2023-03-06T16:14:26.103Z,5.07
2023-03-06T16:18:34.305Z,5.10
2023-03-06T16:22:42.278Z,5.08
2023-03-06T16:26:52.746Z,5.05
2023-03-06T16:31:00.796Z,5.08
2023-03-06T16:35:09.673Z,5.11
2023-03-06T16:39:18.800Z,5.11
2023-03-06T16:43:26.509Z,5.04
2023-03-06T16:47:33.917Z,4.96
2023-03-06T16:51:41.814Z,4.91
2023-03-06T16:55:52.448Z,4.87
2023-03-06T17:00:11.492Z,4.82
2023-03-06T17:04:19.569Z,4.78
2023-03-06T17:08:27.389Z,4.75
2023-03-06T17:12:36.163Z,4.71
2023-03-06T17:16:46.723Z,4.68
2023-03-06T17:20:55.517Z,4.70
2023-03-06T17:25:04.972Z,4.73
2023-03-06T17:29:13.010Z,4.74
2023-03-06T17:33:20.700Z,4.72
2023-03-06T17:37:29.320Z,4.69
2023-03-06T17:41:37.406Z,4.65
2023-03-06T17:45:45.701Z,4.60
2023-03-06T17:49:53.615Z,4.51
2023-03-06T17:54:02.014Z,4.40
2023-03-06T17:58:12.317Z,4.30
2023-03-06T18:02:20.689Z,4.20
2023-03-06T18:06:30.542Z,4.11
2023-03-06T18:10:42.529Z,4.08
2023-03-06T18:14:50.930Z,4.07
2023-03-06T18:18:59.762Z,4.04
2023-03-06T18:23:07.889Z,3.96
2023-03-06T18:27:15.908Z,3.78
2023-03-06T18:31:25.153Z,3.59
2023-03-06T18:35:34.091Z,3.42
2023-03-06T18:39:41.627Z,3.35
2023-03-06T18:43:54.494Z,3.31
2023-03-06T18:48:05.332Z,3.30
2023-03-06T18:52:14.120Z,3.38
2023-03-06T18:56:24.122Z,3.46
2023-03-06T19:00:32.155Z,3.51
2023-03-06T19:04:40.749Z,3.55
2023-03-06T19:08:48.661Z,3.58
2023-03-06T19:12:56.926Z,3.59
2023-03-06T19:17:04.818Z,3.61
2023-03-06T19:21:14.758Z,3.63
2023-03-06T19:25:23.084Z,3.63
2023-03-06T19:29:32.718Z,3.63
2023-03-06T19:33:40.590Z,3.62
2023-03-06T19:37:48.522Z,3.64
2023-03-06T19:41:57.027Z,3.65
2023-03-06T19:46:05.154Z,3.55
2023-03-06T19:50:14.554Z,3.41
2023-03-06T19:54:25.162Z,3.29
2023-03-06T19:58:33.494Z,3.17
2023-03-06T20:02:41.704Z,3.02
2023-03-06T20:06:53.604Z,2.86
2023-03-06T20:11:01.231Z,2.79
2023-03-06T20:15:13.257Z,2.69
2023-03-06T20:19:22.826Z,2.53
2023-03-06T20:23:32.735Z,2.37
2023-03-06T20:27:41.086Z,2.27
2023-03-06T20:31:50.726Z,2.22
2023-03-06T20:35:59.088Z,2.18
2023-03-06T20:40:08.747Z,2.24
2023-03-06T20:44:18.348Z,2.28
2023-03-06T20:48:26.790Z,2.24
2023-03-06T20:52:35.198Z,2.21
2023-03-06T20:56:46.237Z,2.12
2023-03-06T21:00:53.705Z,2.00
2023-03-06T21:05:01.829Z,1.94
2023-03-06T21:09:10.177Z,1.92
2023-03-06T21:13:17.559Z,1.98
2023-03-06T21:17:26.036Z,2.05
2023-03-06T21:21:34.976Z,2.02
2023-03-06T21:25:50.569Z,1.95
2023-03-06T21:29:58.809Z,1.89
2023-03-06T21:34:06.905Z,1.86
2023-03-06T21:38:15.724Z,1.87
2023-03-06T21:42:23.577Z,1.87
2023-03-06T21:46:31.205Z,1.92
2023-03-06T21:50:39.409Z,2.02
2023-03-06T21:54:47.463Z,2.08
2023-03-06T21:58:55.871Z,2.09
2023-03-06T22:03:04.813Z,2.09
2023-03-06T22:07:12.364Z,2.12
2023-03-06T22:11:21.659Z,2.18
2023-03-06T22:15:29.661Z,2.20
2023-03-06T22:19:37.628Z,2.14
2023-03-06T22:23:45.685Z,1.99
2023-03-06T22:27:52.931Z,1.87
2023-03-06T22:32:00.636Z,1.74
2023-03-06T22:36:10.910Z,1.73
2023-03-06T22:40:19.545Z,1.79
2023-03-06T22:44:27.168Z,1.88
2023-03-06T22:48:36.290Z,1.92
2023-03-06T22:52:44.394Z,1.94
2023-03-06T22:56:53.201Z,1.96
2023-03-06T23:01:01.857Z,1.99
2023-03-06T23:05:11.363Z,2.02
2023-03-06T23:09:21.478Z,2.06
2023-03-06T23:13:29.160Z,2.06
2023-03-06T23:17:37.013Z,2.05
2023-03-06T23:21:45.763Z,2.05
2023-03-06T23:25:53.873Z,2.03
2023-03-06T23:30:01.997Z,2.06
2023-03-06T23:34:11.737Z,2.06
2023-03-06T23:38:19.758Z,2.08
2023-03-06T23:42:27.541Z,2.09
2023-03-06T23:46:34.917Z,2.08
2023-03-06T23:50:44.053Z,2.03
2023-03-06T23:54:53.060Z,2.02
2023-03-06T23:59:01.896Z,2.04
